Time;durP1;ratioP1;P1;durP2;ratioP2;P2;SDS_P1;SDS_P2;PMS_P1;PMS_P2;Temp;Humidity;BMP_temperature;BMP_pressure;BME280_temperature;BME280_humidity;BME280_pressure;Samples;Min_cycle;Max_cycle;Signal;HPM_P1;HPM_P2
2022/09/20 00:00:42;;;;;;;13.87;3.10;;;9.60;91.80;;;;;;5095731;28;20178;-89
2022/09/20 00:03:09;;;;;;;18.60;3.83;;;9.60;92.00;;;;;;5077838;28;20206;-90
2022/09/20 00:05:36;;;;;;;19.77;4.67;;;9.70;92.20;;;;;;5077643;28;20185;-89
2022/09/20 00:08:04;;;;;;;25.43;5.10;;;9.70;92.30;;;;;;5077553;28;20194;-90
2022/09/20 00:10:35;;;;;;;16.93;3.63;;;9.70;92.30;;;;;;5078106;28;20184;-89
2022/09/20 00:13:01;;;;;;;14.57;3.77;;;9.70;92.40;;;;;;5095681;28;20532;-91
2022/09/20 00:15:27;;;;;;;15.10;3.50;;;9.70;92.50;;;;;;5077266;28;20256;-89
2022/09/20 00:17:53;;;;;;;16.83;5.27;;;9.70;92.60;;;;;;5077287;28;20297;-89
2022/09/20 00:20:19;;;;;;;20.17;5.57;;;9.70;92.60;;;;;;5078429;28;20209;-91
2022/09/20 00:22:48;;;;;;;27.87;5.00;;;9.70;92.60;;;;;;5080504;28;20235;-91
2022/09/20 00:25:14;;;;;;;16.53;4.30;;;9.70;92.60;;;;;;5077342;28;20179;-89
2022/09/20 00:27:40;;;;;;;17.67;4.07;;;9.70;92.60;;;;;;5077125;28;20222;-90
2022/09/20 00:30:06;;;;;;;16.10;4.37;;;9.80;92.70;;;;;;5077198;28;20206;-89
2022/09/20 00:32:32;;;;;;;21.03;4.10;;;9.80;92.70;;;;;;5095070;28;20171;-91
2022/09/20 00:35:07;;;;;;;15.77;4.67;;;9.80;92.80;;;;;;5076950;28;20189;-89
2022/09/20 00:37:42;;;;;;;16.70;3.27;;;9.90;92.80;;;;;;5095090;28;20210;-89
2022/09/20 00:40:12;;;;;;;15.03;4.50;;;9.90;92.80;;;;;;5095013;28;20245;-89
2022/09/20 00:42:37;;;;;;;15.90;3.27;;;9.90;92.80;;;;;;5095215;28;20162;-90
2022/09/20 00:45:06;;;;;;;16.67;4.10;;;9.80;92.80;;;;;;5095199;28;20178;-89
2022/09/20 00:47:43;;;;;;;14.73;4.03;;;9.80;92.70;;;;;;5076601;28;20267;-90
2022/09/20 00:50:28;;;;;;;16.13;3.70;;;9.80;92.70;;;;;;5076651;28;20198;-90
2022/09/20 00:53:02;;;;;;;14.60;3.93;;;9.80;92.70;;;;;;5076668;28;20631;-89
2022/09/20 00:55:28;;;;;;;20.20;4.27;;;9.90;92.70;;;;;;5094568;28;20190;-90
2022/09/20 00:57:53;;;;;;;13.57;4.47;;;9.90;92.70;;;;;;5094571;28;20680;-90
2022/09/20 01:00:20;;;;;;;14.27;3.50;;;9.80;92.60;;;;;;5094034;28;20179;-89
2022/09/20 01:02:49;;;;;;;15.87;3.63;;;9.80;92.60;;;;;;5076797;28;20656;-89
2022/09/20 01:05:17;;;;;;;16.57;4.03;;;9.80;92.50;;;;;;5094420;28;20170;-89
2022/09/20 01:07:44;;;;;;;12.77;3.70;;;9.80;92.40;;;;;;5094416;28;20631;-89
2022/09/20 01:10:09;;;;;;;12.87;4.07;;;9.80;92.30;;;;;;5076273;28;20185;-89
2022/09/20 01:12:39;;;;;;;13.93;2.67;;;9.80;92.30;;;;;;5076367;28;20179;-90
2022/09/20 01:15:06;;;;;;;9.87;2.97;;;9.80;92.30;;;;;;5076207;28;20186;-90
2022/09/20 01:17:34;;;;;;;9.47;2.70;;;9.80;92.20;;;;;;5076228;28;20221;-89
2022/09/20 01:20:00;;;;;;;11.60;2.43;;;9.70;92.00;;;;;;5076071;28;20175;-89
2022/09/20 01:22:43;;;;;;;11.03;2.40;;;9.60;91.90;;;;;;5076016;28;20257;-89
2022/09/20 01:25:46;;;;;;;13.20;2.40;;;9.50;91.80;;;;;;5094203;28;20177;-89
2022/09/20 01:28:12;;;;;;;7.33;2.50;;;9.50;91.70;;;;;;5075958;28;20159;-89
2022/09/20 01:30:45;;;;;;;7.57;2.20;;;9.50;91.70;;;;;;5094029;28;20166;-89
2022/09/20 01:33:36;;;;;;;5.63;2.20;;;9.50;91.50;;;;;;5076432;28;20158;-89
2022/09/20 01:36:04;;;;;;;12.70;2.80;;;9.40;91.30;;;;;;5093892;28;20210;-89
2022/09/20 01:38:51;;;;;;;7.87;2.20;;;9.30;91.30;;;;;;5075932;28;20174;-89
2022/09/20 01:41:30;;;;;;;7.03;2.20;;;9.30;91.10;;;;;;5094183;28;20163;-89
2022/09/20 01:44:11;;;;;;;6.27;1.83;;;9.30;91.10;;;;;;5075790;28;20194;-89
2022/09/20 01:46:37;;;;;;;10.30;2.40;;;9.30;91.00;;;;;;5093866;28;20194;-89
2022/09/20 01:49:33;;;;;;;6.33;2.27;;;9.30;90.90;;;;;;5075739;28;20585;-89
2022/09/20 01:52:26;;;;;;;7.17;2.07;;;9.20;90.80;;;;;;5075797;28;20170;-89
2022/09/20 01:55:24;;;;;;;6.50;1.87;;;9.20;90.70;;;;;;5093689;28;20166;-89
2022/09/20 01:58:20;;;;;;;6.70;2.10;;;9.20;90.60;;;;;;5093538;28;20229;-89
2022/09/20 02:01:07;;;;;;;7.07;2.33;;;9.10;90.40;;;;;;5093622;28;20157;-89
2022/09/20 02:03:57;;;;;;;10.57;2.50;;;9.00;90.30;;;;;;5093793;28;20648;-90
2022/09/20 02:06:45;;;;;;;7.43;1.70;;;9.00;90.40;;;;;;5075484;28;20226;-89
2022/09/20 02:09:36;;;;;;;6.50;2.10;;;9.10;90.40;;;;;;5093863;28;20216;-90
2022/09/20 02:12:20;;;;;;;8.17;1.63;;;9.00;90.40;;;;;;5075224;28;20177;-90
2022/09/20 02:15:16;;;;;;;4.13;1.83;;;9.00;90.20;;;;;;5093418;28;20166;-90
2022/09/20 02:18:13;;;;;;;6.67;2.17;;;8.90;90.10;;;;;;5093235;28;20217;-90
2022/09/20 02:21:02;;;;;;;8.80;2.17;;;8.80;90.10;;;;;;5075278;28;20624;-89
2022/09/20 02:23:54;;;;;;;5.93;2.40;;;8.90;90.20;;;;;;5075083;28;20572;-89
2022/09/20 02:26:48;;;;;;;6.60;2.57;;;8.90;90.20;;;;;;5093259;28;20190;-90
2022/09/20 02:29:24;;;;;;;4.47;1.80;;;8.90;90.20;;;;;;5076077;28;20201;-89
2022/09/20 02:32:24;;;;;;;6.07;1.80;;;8.90;90.10;;;;;;5075228;28;20174;-89
2022/09/20 02:35:14;;;;;;;4.63;1.80;;;8.90;90.10;;;;;;5075745;28;20232;-89
2022/09/20 02:38:13;;;;;;;9.67;1.97;;;8.90;90.00;;;;;;5074949;28;20202;-90
2022/09/20 02:41:13;;;;;;;5.93;1.83;;;9.00;90.20;;;;;;5093148;28;20163;-89
2022/09/20 02:43:54;;;;;;;5.17;2.13;;;9.00;90.10;;;;;;5074938;28;20264;-89
2022/09/20 02:46:29;;;;;;;6.47;2.33;;;9.00;90.00;;;;;;5075105;28;20668;-89
2022/09/20 02:48:59;;;;;;;5.63;2.33;;;9.00;89.90;;;;;;5075899;28;20253;-89
2022/09/20 02:51:46;;;;;;;3.93;2.17;;;8.90;89.90;;;;;;5075054;28;20200;-89
2022/09/20 02:54:27;;;;;;;8.87;2.40;;;8.90;89.90;;;;;;5074976;28;20167;-89
2022/09/20 02:57:04;;;;;;;7.30;2.30;;;8.90;89.90;;;;;;5092947;28;20206;-90
2022/09/20 03:00:06;;;;;;;6.73;2.43;;;8.90;89.90;;;;;;5093371;28;20159;-90
2022/09/20 03:02:39;;;;;;;7.63;2.13;;;8.80;89.70;;;;;;5092958;28;20249;-89
2022/09/20 03:05:26;;;;;;;6.27;2.53;;;8.70;89.70;;;;;;5074861;28;20167;-89
2022/09/20 03:08:13;;;;;;;5.23;2.20;;;8.70;89.80;;;;;;5092843;28;20568;-89
2022/09/20 03:11:00;;;;;;;7.37;1.90;;;8.70;89.80;;;;;;5092923;28;20156;-90
2022/09/20 03:13:54;;;;;;;4.30;1.63;;;8.60;89.90;;;;;;5074861;28;20186;-89
2022/09/20 03:16:41;;;;;;;4.20;1.73;;;8.60;89.90;;;;;;5074705;28;20217;-89
2022/09/20 03:19:26;;;;;;;3.33;2.10;;;8.50;89.90;;;;;;5074714;28;20171;-89
2022/09/20 03:22:27;;;;;;;8.97;1.90;;;8.60;90.00;;;;;;5074747;28;20171;-89
2022/09/20 03:25:20;;;;;;;8.63;2.33;;;8.50;90.00;;;;;;5023437;28;20189;-89
2022/09/20 03:28:07;;;;;;;8.93;2.70;;;8.50;89.90;;;;;;5096422;28;20270;-90
2022/09/20 03:30:54;;;;;;;5.37;2.00;;;8.60;90.00;;;;;;5096467;28;20625;-90
2022/09/20 03:33:31;;;;;;;6.57;2.00;;;8.50;90.00;;;;;;5096352;28;20646;-89
2022/09/20 03:36:25;;;;;;;4.07;2.10;;;8.40;90.10;;;;;;5077991;28;20217;-89
2022/09/20 03:39:30;;;;;;;3.90;1.67;;;8.50;90.30;;;;;;5078108;28;20159;-90
2022/09/20 03:42:10;;;;;;;1.57;1.30;;;8.50;90.30;;;;;;5060658;28;20644;-90
2022/09/20 03:44:58;;;;;;;4.17;1.63;;;8.50;90.20;;;;;;5078031;28;20636;-89
2022/09/20 03:47:42;;;;;;;7.00;1.90;;;8.50;90.00;;;;;;5096205;28;20715;-89
2022/09/20 03:50:22;;;;;;;8.57;2.00;;;8.50;90.00;;;;;;5096159;28;20162;-90
2022/09/20 03:53:11;;;;;;;4.00;1.53;;;8.50;90.20;;;;;;5096242;28;20171;-89
2022/09/20 03:55:48;;;;;;;7.27;1.80;;;8.60;90.40;;;;;;5095861;28;20187;-90
2022/09/20 03:58:48;;;;;;;2.67;1.87;;;8.50;90.50;;;;;;5077861;28;20617;-89
2022/09/20 04:01:53;;;;;;;5.47;2.00;;;8.60;90.80;;;;;;5077735;28;20639;-89
2022/09/20 04:04:25;;;;;;;5.50;1.90;;;8.60;90.90;;;;;;5077589;28;20273;-89
2022/09/20 04:07:09;;;;;;;5.90;2.70;;;8.70;91.00;;;;;;5077585;28;20206;-90
2022/09/20 04:09:59;;;;;;;4.93;2.40;;;8.70;91.10;;;;;;5095717;28;20220;-90
2022/09/20 04:12:52;;;;;;;7.77;2.77;;;8.70;91.20;;;;;;5077354;28;20170;-90
2022/09/20 04:15:43;;;;;;;4.80;2.27;;;8.70;91.20;;;;;;5095821;28;20510;-90
2022/09/20 04:18:37;;;;;;;10.43;2.70;;;8.80;91.40;;;;;;5077379;28;20206;-89
2022/09/20 04:21:38;;;;;;;2.53;2.30;;;8.80;91.50;;;;;;5077612;28;20166;-89
2022/09/20 04:24:20;;;;;;;5.83;2.17;;;8.80;91.50;;;;;;5095916;28;20161;-89
2022/09/20 04:26:51;;;;;;;3.47;1.97;;;8.80;91.50;;;;;;5095785;28;20219;-89
2022/09/20 04:29:39;;;;;;;7.37;2.37;;;8.70;91.50;;;;;;5077381;28;20542;-89
2022/09/20 04:32:46;;;;;;;5.97;2.40;;;8.70;91.50;;;;;;5096947;28;20169;-89
2022/09/20 04:38:19;;;;;;;7.40;2.70;;;8.70;91.50;;;;;;5095334;28;20166;-90
2022/09/20 04:41:11;;;;;;;8.80;2.70;;;8.70;91.60;;;;;;5076930;28;20198;-89
2022/09/20 04:44:10;;;;;;;4.47;2.30;;;8.60;91.50;;;;;;5076891;28;20186;-89
2022/09/20 04:46:54;;;;;;;5.70;2.63;;;8.70;91.60;;;;;;5076620;28;20205;-90
2022/09/20 04:49:32;;;;;;;5.43;2.40;;;8.60;91.50;;;;;;5094859;28;20185;-90
2022/09/20 04:52:21;;;;;;;6.93;2.47;;;8.60;91.50;;;;;;5076760;28;20242;-90
2022/09/20 04:54:46;;;;;;;7.87;3.10;;;8.60;91.50;;;;;;5094749;28;20159;-90
2022/09/20 04:57:58;;;;;;;9.83;2.60;;;8.60;91.50;;;;;;5076423;28;20214;-90
2022/09/20 05:00:36;;;;;;;11.27;2.67;;;8.60;91.60;;;;;;5094743;28;20163;-89
2022/09/20 05:03:38;;;;;;;6.97;2.87;;;8.60;91.60;;;;;;5076450;28;20167;-90
2022/09/20 05:06:44;;;;;;;9.00;2.23;;;8.60;91.60;;;;;;5076339;28;20198;-90
2022/09/20 05:09:32;;;;;;;6.07;2.40;;;8.60;91.70;;;;;;5076455;28;20181;-90
2022/09/20 05:12:26;;;;;;;4.97;2.50;;;8.60;91.60;;;;;;5094457;28;20231;-90
2022/09/20 05:15:05;;;;;;;7.67;2.37;;;8.50;91.50;;;;;;5094202;28;20178;-90
2022/09/20 05:18:15;;;;;;;9.60;2.50;;;8.40;91.40;;;;;;5075960;28;20680;-89
2022/09/20 05:21:07;;;;;;;7.80;2.70;;;8.50;91.60;;;;;;5076033;28;20187;-90
2022/09/20 05:24:00;;;;;;;8.33;2.73;;;8.50;91.80;;;;;;5076801;28;20178;-90
2022/09/20 05:26:37;;;;;;;8.43;2.57;;;8.60;91.90;;;;;;5075874;28;20205;-90
2022/09/20 05:29:35;;;;;;;7.37;2.50;;;8.70;92.00;;;;;;5076043;28;20269;-89
2022/09/20 05:32:22;;;;;;;3.20;1.90;;;8.70;92.00;;;;;;5075991;28;20235;-89
2022/09/20 05:35:11;;;;;;;5.70;2.20;;;8.40;91.90;;;;;;5075869;28;20637;-89
2022/09/20 05:38:15;;;;;;;6.70;2.20;;;8.30;92.00;;;;;;5094068;28;20694;-89
2022/09/20 05:40:49;;;;;;;6.20;2.40;;;8.40;92.30;;;;;;5093919;28;20586;-89
2022/09/20 05:43:27;;;;;;;8.57;2.40;;;8.30;92.30;;;;;;5093875;28;20150;-89
2022/09/20 05:46:02;;;;;;;5.27;2.10;;;8.40;92.50;;;;;;5075312;28;20205;-89
2022/09/20 05:48:53;;;;;;;5.83;2.23;;;8.40;92.60;;;;;;5075687;28;20216;-89
2022/09/20 05:52:02;;;;;;;8.57;2.60;;;8.50;92.60;;;;;;5075672;28;20174;-89
2022/09/20 05:54:55;;;;;;;4.97;2.10;;;8.50;92.60;;;;;;5075591;28;20178;-90
2022/09/20 05:57:53;;;;;;;6.43;2.20;;;8.60;92.50;;;;;;5075305;28;20305;-89
2022/09/20 06:00:23;;;;;;;7.10;2.30;;;8.60;92.50;;;;;;5075720;28;20590;-90
2022/09/20 06:03:16;;;;;;;3.63;2.10;;;8.50;92.30;;;;;;5075567;28;20170;-89
2022/09/20 06:05:54;;;;;;;4.63;1.90;;;8.50;92.30;;;;;;5093752;28;20162;-89
2022/09/20 06:08:32;;;;;;;7.40;2.50;;;8.50;92.30;;;;;;5075526;28;20208;-89
2022/09/20 06:11:26;;;;;;;9.03;2.50;;;8.60;92.60;;;;;;5093486;28;20550;-89
2022/09/20 06:14:02;;;;;;;10.00;2.33;;;8.70;92.60;;;;;;5093528;28;20528;-90
2022/09/20 06:16:40;;;;;;;14.13;2.80;;;8.80;92.80;;;;;;5075099;28;20210;-90
2022/09/20 06:19:33;;;;;;;6.67;2.73;;;8.90;92.90;;;;;;5075572;28;20565;-89
2022/09/20 06:22:11;;;;;;;13.47;3.17;;;9.00;93.10;;;;;;5075421;28;20190;-89
2022/09/20 06:25:02;;;;;;;8.93;3.17;;;9.20;93.30;;;;;;5075372;28;20170;-89
2022/09/20 06:27:33;;;;;;;5.63;2.97;;;9.20;93.30;;;;;;5075270;28;20569;-90
2022/09/20 06:30:04;;;;;;;9.87;2.60;;;9.20;93.40;;;;;;5093346;28;20238;-89
2022/09/20 06:32:30;;;;;;;6.97;2.70;;;9.20;93.40;;;;;;5075175;28;20170;-89
2022/09/20 06:35:01;;;;;;;8.23;2.77;;;9.10;93.40;;;;;;5093369;28;20229;-89
2022/09/20 06:43:31;;;;;;;13.20;3.57;;;9.30;93.60;;;;;;5093834;28;20178;-89
2022/09/20 06:45:57;;;;;;;14.17;4.00;;;9.60;93.90;;;;;;5075024;28;20661;-89
2022/09/20 06:48:23;;;;;;;9.43;3.03;;;9.80;93.90;;;;;;5093109;28;20175;-89
2022/09/20 06:50:51;;;;;;;10.27;3.53;;;10.00;93.90;;;;;;5075016;28;20175;-89
2022/09/20 06:53:26;;;;;;;17.13;3.30;;;10.10;94.00;;;;;;5075013;28;20178;-90
2022/09/20 06:55:52;;;;;;;10.53;2.87;;;10.20;94.00;;;;;;5074927;28;20198;-90
2022/09/20 06:58:18;;;;;;;13.73;3.30;;;10.40;94.10;;;;;;5094517;28;20249;-89
2022/09/20 07:00:43;;;;;;;14.70;2.77;;;10.30;93.90;;;;;;5097297;28;20537;-90
2022/09/20 07:03:11;;;;;;;8.73;2.50;;;10.30;93.90;;;;;;5078729;28;20174;-90
2022/09/20 07:05:37;;;;;;;13.53;3.53;;;10.30;93.70;;;;;;5096836;28;20263;-90
2022/09/20 07:08:03;;;;;;;8.83;2.50;;;10.30;93.70;;;;;;5078654;28;20194;-89
2022/09/20 07:10:28;;;;;;;7.57;2.70;;;10.30;93.70;;;;;;5078639;28;20220;-88
2022/09/20 07:12:59;;;;;;;5.37;2.70;;;10.30;93.60;;;;;;5078611;28;20205;-89
2022/09/20 07:15:26;;;;;;;8.23;2.50;;;10.40;93.60;;;;;;5078658;28;20194;-89
2022/09/20 07:17:51;;;;;;;9.13;3.27;;;10.40;93.50;;;;;;5078546;28;20268;-89
2022/09/20 07:20:18;;;;;;;9.93;3.10;;;10.50;93.50;;;;;;5096653;28;20163;-89
2022/09/20 07:22:44;;;;;;;10.07;2.90;;;10.50;93.40;;;;;;5096702;28;20224;-89
2022/09/20 07:25:10;;;;;;;14.20;2.73;;;10.50;93.40;;;;;;5096625;28;20166;-89
2022/09/20 07:27:35;;;;;;;9.27;2.57;;;10.60;93.40;;;;;;5096529;28;20681;-89
2022/09/20 07:30:01;;;;;;;9.37;2.77;;;10.70;93.30;;;;;;5078345;28;20637;-89
2022/09/20 07:32:27;;;;;;;7.47;2.80;;;10.70;93.30;;;;;;5078527;28;20167;-89
2022/09/20 07:34:52;;;;;;;11.77;4.30;;;10.90;93.50;;;;;;5078245;28;20645;-89
2022/09/20 07:37:18;;;;;;;10.73;2.83;;;10.90;93.30;;;;;;5096176;28;20206;-89
2022/09/20 07:39:44;;;;;;;6.97;2.87;;;10.90;93.30;;;;;;5096392;28;20170;-90
2022/09/20 07:42:11;;;;;;;10.67;2.60;;;11.10;93.20;;;;;;5080110;28;20171;-90
2022/09/20 07:44:39;;;;;;;8.40;2.80;;;11.20;92.90;;;;;;5078890;28;20243;-90
2022/09/20 07:47:05;;;;;;;18.43;3.10;;;11.30;92.50;;;;;;5078255;28;20198;-90
2022/09/20 07:49:31;;;;;;;6.50;2.13;;;11.30;92.10;;;;;;5078427;28;20648;-90
2022/09/20 07:51:57;;;;;;;13.60;2.50;;;11.30;92.00;;;;;;5078473;28;20536;-91
2022/09/20 07:54:23;;;;;;;16.87;3.63;;;11.30;91.90;;;;;;5078326;28;20171;-90
2022/09/20 07:56:48;;;;;;;19.07;3.40;;;11.50;91.60;;;;;;5078057;28;20259;-90
2022/09/20 07:59:15;;;;;;;11.30;2.87;;;11.50;91.30;;;;;;5078388;28;20546;-90
2022/09/20 08:01:41;;;;;;;8.60;2.43;;;11.50;90.80;;;;;;5081529;28;20183;-91
2022/09/20 08:04:08;;;;;;;13.10;2.63;;;11.70;90.50;;;;;;5078844;28;20270;-90
2022/09/20 08:06:40;;;;;;;13.73;2.93;;;12.00;90.00;;;;;;5102330;28;20187;-91
2022/09/20 08:09:06;;;;;;;16.47;3.13;;;12.00;89.20;;;;;;5095582;28;20253;-89
2022/09/20 08:11:34;;;;;;;12.60;2.63;;;12.20;89.00;;;;;;5077786;28;20178;-91
2022/09/20 08:14:00;;;;;;;12.67;3.17;;;12.20;87.70;;;;;;5077783;28;20171;-90
2022/09/20 08:16:27;;;;;;;15.67;3.23;;;12.30;87.60;;;;;;5095440;28;20238;-91
2022/09/20 08:18:58;;;;;;;13.73;2.97;;;12.30;87.10;;;;;;5077640;28;20220;-91
2022/09/20 08:21:32;;;;;;;10.13;2.67;;;12.30;87.00;;;;;;5077722;28;20551;-87
2022/09/20 08:23:59;;;;;;;19.40;3.20;;;12.40;86.70;;;;;;5077321;28;20250;-89
2022/09/20 08:26:26;;;;;;;16.07;2.97;;;12.50;87.20;;;;;;5077269;28;20191;-90
2022/09/20 08:28:54;;;;;;;12.20;2.70;;;12.50;87.50;;;;;;5095365;28;20198;-90
2022/09/20 08:31:23;;;;;;;13.53;2.50;;;12.60;87.50;;;;;;5095255;28;20171;-89
2022/09/20 08:33:50;;;;;;;14.70;2.43;;;12.50;86.00;;;;;;5077141;28;20177;-89
2022/09/20 08:36:18;;;;;;;17.57;3.20;;;12.80;84.70;;;;;;5076987;28;20213;-90
2022/09/20 08:38:44;;;;;;;14.80;3.67;;;12.80;82.70;;;;;;5077019;28;20170;-88
2022/09/20 08:41:20;;;;;;;14.57;3.27;;;12.90;83.10;;;;;;5094991;28;20175;-90
2022/09/20 08:43:59;;;;;;;16.93;2.80;;;13.00;83.20;;;;;;5076934;28;20208;-91
2022/09/20 08:46:28;;;;;;;12.03;2.43;;;13.20;82.40;;;;;;5077723;28;20218;-92
2022/09/20 08:48:56;;;;;;;15.67;2.90;;;13.20;82.40;;;;;;5077679;28;20178;-90
2022/09/20 08:51:22;;;;;;;14.07;3.20;;;13.20;82.50;;;;;;5096490;28;20171;-90
2022/09/20 08:53:52;;;;;;;19.70;3.43;;;13.30;82.70;;;;;;5077589;28;20182;-91
2022/09/20 08:56:22;;;;;;;17.80;2.67;;;13.30;81.70;;;;;;5079767;28;20280;-91
2022/09/20 08:58:48;;;;;;;11.83;2.37;;;13.50;82.30;;;;;;5077789;28;20170;-92
2022/09/20 09:01:21;;;;;;;15.27;2.33;;;13.60;82.30;;;;;;5077176;28;20179;-88
2022/09/20 09:03:50;;;;;;;18.80;4.47;;;13.60;81.40;;;;;;5076550;28;20174;-90
2022/09/20 09:06:17;;;;;;;10.63;2.33;;;13.70;80.30;;;;;;5077694;28;20202;-90
2022/09/20 09:08:45;;;;;;;15.50;2.93;;;13.70;78.60;;;;;;5076517;28;20178;-90
2022/09/20 09:11:15;;;;;;;15.80;2.47;;;13.80;78.50;;;;;;5076443;28;20175;-92
2022/09/20 09:14:00;;;;;;;8.60;2.50;;;13.90;75.50;;;;;;5076718;28;20163;-90
2022/09/20 09:16:29;;;;;;;12.23;2.27;;;14.20;73.80;;;;;;5076555;28;20217;-91
2022/09/20 09:18:56;;;;;;;8.77;2.53;;;14.40;76.30;;;;;;5094541;28;20246;-90
2022/09/20 09:21:27;;;;;;;9.57;2.30;;;14.50;74.40;;;;;;5075497;28;20608;-91
2022/09/20 09:24:13;;;;;;;12.97;2.10;;;14.60;73.30;;;;;;5094407;28;20159;-90
2022/09/20 09:26:42;;;;;;;9.03;2.17;;;14.70;73.70;;;;;;5094459;28;20186;-89
2022/09/20 09:29:18;;;;;;;12.20;2.27;;;14.40;71.10;;;;;;5083463;28;20652;-90
2022/09/20 09:31:45;;;;;;;17.03;2.87;;;14.40;73.40;;;;;;5076279;28;20200;-92
2022/09/20 09:34:24;;;;;;;8.47;2.50;;;14.30;74.30;;;;;;5076105;28;20206;-92
2022/09/20 09:36:50;;;;;;;13.00;2.10;;;14.10;73.70;;;;;;5077038;28;20217;-92
2022/09/20 09:39:22;;;;;;;11.10;2.50;;;14.50;75.60;;;;;;5075847;28;20181;-90
2022/09/20 09:41:48;;;;;;;9.57;2.43;;;14.70;75.60;;;;;;5094015;28;20163;-91
2022/09/20 09:44:23;;;;;;;9.67;2.27;;;14.80;73.90;;;;;;5077130;28;20186;-91
2022/09/20 09:46:49;;;;;;;10.57;1.90;;;14.80;73.00;;;;;;5076426;28;20198;-88
2022/09/20 09:49:19;;;;;;;12.95;2.10;;;14.60;73.30;;;;;;5076235;28;20175;-91
2022/09/20 09:52:13;;;;;;;7.13;2.00;;;14.60;74.10;;;;;;5076113;28;20174;-91
2022/09/20 09:54:45;;;;;;;17.30;2.60;;;14.50;72.80;;;;;;5076850;28;20174;-91
2022/09/20 09:57:52;;;;;;;7.75;1.92;;;14.40;70.20;;;;;;5076393;28;20213;-91
2022/09/20 10:00:26;;;;;;;19.05;2.95;;;14.80;70.70;;;;;;5076289;28;20250;-93
2022/09/20 10:03:24;;;;;;;7.53;2.00;;;14.90;68.90;;;;;;5077204;28;20177;-91
2022/09/20 10:06:17;;;;;;;10.32;2.28;;;15.30;69.30;;;;;;5076043;28;20254;-91
2022/09/20 10:09:08;;;;;;;11.77;1.85;;;15.30;66.50;;;;;;5080092;28;20163;-92
2022/09/20 10:11:42;;;;;;;10.07;2.20;;;15.30;65.70;;;;;;5083354;28;20198;-92
2022/09/20 10:14:28;;;;;;;9.45;2.30;;;15.30;67.40;;;;;;5081239;28;20163;-93
2022/09/20 10:17:19;;;;;;;8.38;2.08;;;15.50;67.70;;;;;;5076309;28;20244;-92
2022/09/20 10:20:06;;;;;;;7.90;2.00;;;15.70;66.90;;;;;;5088100;28;20178;-93
2022/09/20 10:23:00;;;;;;;10.43;2.80;;;15.90;67.20;;;;;;5082814;28;20223;-91
2022/09/20 10:25:51;;;;;;;7.00;1.63;;;16.10;64.80;;;;;;5075975;28;20184;-89
2022/09/20 10:28:47;;;;;;;14.25;2.55;;;16.20;65.10;;;;;;5075575;28;20174;-89
2022/09/20 10:31:15;;;;;;;8.30;1.73;;;16.20;64.50;;;;;;5076039;28;20167;-89
2022/09/20 10:33:50;;;;;;;6.68;2.10;;;15.80;65.30;;;;;;5078574;28;20170;-90
2022/09/20 10:36:43;;;;;;;11.23;2.05;;;15.70;67.60;;;;;;5097568;28;20573;-90
2022/09/20 10:39:24;;;;;;;12.60;2.58;;;15.60;65.40;;;;;;5079604;28;20167;-89
2022/09/20 10:45:22;;;;;;;8.45;2.10;;;15.80;62.90;;;;;;5097414;28;20212;-90
2022/09/20 10:48:06;;;;;;;6.60;1.92;;;16.00;62.40;;;;;;5079248;28;20199;-89
2022/09/20 10:50:57;;;;;;;8.65;1.88;;;16.20;61.80;;;;;;5079331;28;20166;-90
2022/09/20 10:53:48;;;;;;;6.10;1.70;;;16.20;58.60;;;;;;5097516;28;20232;-90
2022/09/20 10:56:34;;;;;;;8.25;1.67;;;16.60;60.50;;;;;;5079370;28;20210;-90
2022/09/20 10:59:19;;;;;;;5.43;1.92;;;16.90;60.90;;;;;;5097374;28;20162;-89
2022/09/20 11:02:13;;;;;;;7.28;1.42;;;17.10;60.20;;;;;;5097241;28;20701;-90
2022/09/20 11:05:09;;;;;;;7.22;1.65;;;17.10;60.00;;;;;;5079461;28;20249;-90
2022/09/20 11:07:59;;;;;;;10.88;1.73;;;17.10;58.90;;;;;;5078910;28;20596;-90
2022/09/20 11:10:48;;;;;;;7.53;1.77;;;17.20;59.70;;;;;;5078977;28;20640;-89
2022/09/20 11:13:38;;;;;;;6.10;1.60;;;16.30;59.80;;;;;;5097307;28;20534;-89
2022/09/20 11:16:08;;;;;;;8.02;2.15;;;16.20;61.70;;;;;;5078805;28;20222;-89
2022/09/20 11:18:40;;;;;;;9.70;2.30;;;16.00;62.80;;;;;;5078735;28;20197;-90
2022/09/20 11:21:23;;;;;;;11.13;2.55;;;16.50;62.30;;;;;;5078774;28;20647;-90
2022/09/20 11:24:28;;;;;;;10.10;2.03;;;16.90;63.10;;;;;;5096965;28;20163;-89
2022/09/20 11:27:04;;;;;;;7.53;1.95;;;17.00;61.20;;;;;;5074550;28;20238;-89
2022/09/20 11:29:41;;;;;;;7.20;2.20;;;17.20;58.30;;;;;;5078888;28;20166;-89
2022/09/20 11:32:23;;;;;;;11.35;2.08;;;17.20;57.70;;;;;;5096895;28;20162;-90
2022/09/20 11:35:02;;;;;;;9.65;2.03;;;17.20;56.70;;;;;;5078402;28;20262;-89
2022/09/20 11:37:35;;;;;;;14.35;2.22;;;17.10;57.60;;;;;;5078549;28;20221;-90
2022/09/20 11:40:12;;;;;;;7.90;2.00;;;17.50;59.70;;;;;;5078744;28;20629;-90
2022/09/20 11:42:40;;;;;;;8.15;1.90;;;17.80;59.50;;;;;;5078513;28;20176;-90
2022/09/20 11:45:10;;;;;;;7.50;2.13;;;18.10;57.70;;;;;;5095638;28;20578;-90
2022/09/20 11:47:43;;;;;;;7.45;1.90;;;18.20;57.10;;;;;;5078218;28;20551;-90
2022/09/20 11:50:32;;;;;;;5.80;1.75;;;18.20;55.30;;;;;;5078095;28;20174;-90
2022/09/20 11:53:28;;;;;;;9.75;1.75;;;17.80;55.40;;;;;;5078528;28;20202;-89
2022/09/20 12:08:49;;;;;;;9.05;2.40;;;18.60;52.60;;;;;;5036667;28;20220;-91
2022/09/20 12:11:15;;;;;;;9.43;1.80;;;18.80;55.80;;;;;;5036504;28;20173;-91
2022/09/20 12:13:51;;;;;;;8.57;2.08;;;18.90;53.40;;;;;;5035162;28;20179;-91
2022/09/20 12:16:36;;;;;;;7.93;1.70;;;19.10;52.80;;;;;;5034973;28;20212;-91
2022/09/20 12:19:11;;;;;;;6.97;1.55;;;18.60;51.90;;;;;;5036256;28;20576;-90
2022/09/20 12:22:02;;;;;;;5.38;1.48;;;18.70;51.20;;;;;;5035423;28;20168;-91
2022/09/20 12:24:34;;;;;;;10.52;2.08;;;18.70;56.60;;;;;;5035537;28;20181;-90
2022/09/20 12:27:28;;;;;;;5.65;1.60;;;18.70;55.60;;;;;;5035604;28;20197;-91
2022/09/20 12:30:05;;;;;;;7.75;2.05;;;18.20;57.00;;;;;;5035006;28;20173;-89
2022/09/20 12:32:40;;;;;;;6.78;1.88;;;18.60;57.70;;;;;;5035247;28;20173;-91
2022/09/20 12:35:43;;;;;;;8.55;2.17;;;18.90;55.90;;;;;;5036064;28;20195;-92
2022/09/20 12:38:24;;;;;;;9.38;2.08;;;19.30;53.00;;;;;;5035989;28;20654;-91
2022/09/20 12:41:16;;;;;;;11.88;2.10;;;19.10;51.60;;;;;;5035561;28;20161;-91
2022/09/20 12:43:55;;;;;;;8.77;1.88;;;19.50;51.70;;;;;;5035301;28;20211;-92
2022/09/20 12:46:31;;;;;;;3.88;1.27;;;19.70;52.10;;;;;;5035785;28;20755;-92
2022/09/20 12:52:49;;;;;;;7.75;2.08;;;19.70;52.80;;;;;;5024299;28;20204;-92
2022/09/20 12:55:44;;;;;;;12.25;2.22;;;20.10;53.50;;;;;;5033814;28;20176;-90
2022/09/20 12:58:15;;;;;;;11.27;2.15;;;19.10;53.30;;;;;;5034196;28;20179;-91
2022/09/20 13:00:50;;;;;;;8.07;2.13;;;18.30;54.50;;;;;;5034475;28;20168;-90
2022/09/20 13:03:39;;;;;;;7.82;2.17;;;18.60;54.00;;;;;;5034677;28;20167;-91
2022/09/20 13:06:05;;;;;;;6.53;1.98;;;18.60;55.00;;;;;;5035706;28;20193;-92
2022/09/20 13:08:49;;;;;;;6.78;1.70;;;18.80;52.10;;;;;;5035161;28;20203;-92
2022/09/20 13:11:22;;;;;;;7.80;1.90;;;18.90;53.50;;;;;;5033934;28;20195;-92
2022/09/20 13:14:03;;;;;;;11.02;2.33;;;19.00;52.90;;;;;;5034939;28;20201;-92
2022/09/20 13:16:46;;;;;;;9.30;2.28;;;18.80;52.40;;;;;;5034488;28;20212;-91
2022/09/20 13:19:28;;;;;;;7.32;1.75;;;19.40;51.40;;;;;;5034570;28;20168;-91
2022/09/20 13:22:03;;;;;;;7.45;1.60;;;18.60;51.50;;;;;;5033768;28;20183;-91
2022/09/20 13:24:36;;;;;;;7.70;1.80;;;18.30;54.40;;;;;;5034238;28;20180;-92
2022/09/20 13:27:10;;;;;;;6.68;1.98;;;18.90;53.90;;;;;;5034683;28;20250;-91
2022/09/20 13:29:41;;;;;;;11.85;2.20;;;19.00;49.80;;;;;;5033625;28;20280;-90
2022/09/20 13:32:23;;;;;;;5.00;1.75;;;18.40;53.00;;;;;;5034667;28;20239;-91
2022/09/20 13:35:11;;;;;;;12.18;1.88;;;18.80;54.40;;;;;;5037615;28;20198;-92
2022/09/20 13:37:44;;;;;;;7.60;1.45;;;19.50;53.40;;;;;;5038243;28;20214;-93
2022/09/20 13:40:24;;;;;;;8.00;1.55;;;20.10;52.70;;;;;;5039013;28;20173;-93
2022/09/20 13:42:52;;;;;;;7.68;1.85;;;19.80;51.40;;;;;;5040281;28;20243;-92
2022/09/20 13:45:19;;;;;;;8.52;1.92;;;19.60;53.90;;;;;;5034976;28;20180;-91
2022/09/20 13:47:56;;;;;;;9.20;2.15;;;19.80;53.20;;;;;;5038015;28;20224;-92
2022/09/20 13:50:27;;;;;;;9.80;2.10;;;19.90;48.60;;;;;;5041668;28;20541;-92
2022/09/20 13:52:55;;;;;;;5.53;1.63;;;20.30;51.20;;;;;;5037782;28;20173;-93
2022/09/20 13:55:25;;;;;;;7.75;2.00;;;20.40;50.90;;;;;;5037319;28;20180;-90
2022/09/20 13:57:52;;;;;;;6.30;1.80;;;19.60;49.50;;;;;;5037993;28;20243;-93
2022/09/20 14:00:18;;;;;;;4.85;1.35;;;19.40;49.90;;;;;;5035995;28;20207;-92
2022/09/20 14:02:47;;;;;;;10.40;1.88;;;18.90;49.60;;;;;;5036042;28;20180;-92
2022/09/20 14:05:18;;;;;;;9.10;1.67;;;19.50;50.70;;;;;;5036106;28;20169;-92
2022/09/20 14:07:46;;;;;;;10.38;1.85;;;19.90;50.80;;;;;;5038273;28;20216;-92
2022/09/20 14:10:39;;;;;;;4.57;1.70;;;20.00;50.30;;;;;;5036657;28;20173;-91
2022/09/20 14:13:10;;;;;;;7.18;1.85;;;19.80;49.50;;;;;;5034752;28;20179;-91
2022/09/20 14:15:40;;;;;;;9.68;1.85;;;19.50;51.50;;;;;;5041696;28;20175;-92